sensor_id;sensor_type;location;lat;lon;timestamp;P1;durP1;ratioP1;P2;durP2;ratioP2
23814;SDS011;12088;53.078;8.720;2023-04-01T00:01:12;4.03;;;2.10;;
23814;SDS011;12088;53.078;8.720;2023-04-01T00:03:39;3.83;;;1.63;;
23814;SDS011;12088;53.078;8.720;2023-04-01T00:06:05;3.50;;;2.07;;
23814;SDS011;12088;53.078;8.720;2023-04-01T00:08:30;2.53;;;1.63;;
23814;SDS011;12088;53.078;8.720;2023-04-01T00:10:56;5.13;;;1.80;;
23814;SDS011;12088;53.078;8.720;2023-04-01T00:13:23;3.93;;;2.40;;
23814;SDS011;12088;53.078;8.720;2023-04-01T00:15:51;2.77;;;2.10;;
23814;SDS011;12088;53.078;8.720;2023-04-01T00:18:18;3.57;;;2.20;;
23814;SDS011;12088;53.078;8.720;2023-04-01T00:20:47;4.53;;;2.53;;
23814;SDS011;12088;53.078;8.720;2023-04-01T00:23:15;3.27;;;2.03;;
23814;SDS011;12088;53.078;8.720;2023-04-01T00:25:41;3.50;;;2.10;;
23814;SDS011;12088;53.078;8.720;2023-04-01T00:28:06;3.27;;;1.90;;
23814;SDS011;12088;53.078;8.720;2023-04-01T00:30:32;5.43;;;2.70;;
23814;SDS011;12088;53.078;8.720;2023-04-01T00:32:57;6.53;;;2.87;;
23814;SDS011;12088;53.078;8.720;2023-04-01T00:35:23;5.00;;;2.57;;
23814;SDS011;12088;53.078;8.720;2023-04-01T00:37:49;2.93;;;2.03;;
23814;SDS011;12088;53.078;8.720;2023-04-01T00:40:32;7.57;;;4.17;;
23814;SDS011;12088;53.078;8.720;2023-04-01T00:43:00;3.57;;;2.37;;
23814;SDS011;12088;53.078;8.720;2023-04-01T00:45:31;8.00;;;3.23;;
23814;SDS011;12088;53.078;8.720;2023-04-01T00:48:11;2.33;;;2.00;;
23814;SDS011;12088;53.078;8.720;2023-04-01T00:50:40;3.50;;;2.37;;
23814;SDS011;12088;53.078;8.720;2023-04-01T00:53:11;2.10;;;1.60;;
23814;SDS011;12088;53.078;8.720;2023-04-01T00:55:38;3.47;;;1.93;;
23814;SDS011;12088;53.078;8.720;2023-04-01T00:58:08;3.87;;;2.63;;
23814;SDS011;12088;53.078;8.720;2023-04-01T01:00:38;6.57;;;2.60;;
23814;SDS011;12088;53.078;8.720;2023-04-01T01:03:04;5.50;;;2.70;;
23814;SDS011;12088;53.078;8.720;2023-04-01T01:05:35;3.43;;;2.50;;
23814;SDS011;12088;53.078;8.720;2023-04-01T01:08:36;4.00;;;2.40;;
23814;SDS011;12088;53.078;8.720;2023-04-01T01:11:11;3.23;;;2.23;;
23814;SDS011;12088;53.078;8.720;2023-04-01T01:14:25;4.57;;;3.07;;
23814;SDS011;12088;53.078;8.720;2023-04-01T01:16:36;4.37;;;2.33;;
23814;SDS011;12088;53.078;8.720;2023-04-01T01:19:18;5.97;;;2.10;;
23814;SDS011;12088;53.078;8.720;2023-04-01T01:36:44;4.80;;;2.43;;
23814;SDS011;12088;53.078;8.720;2023-04-01T01:39:15;3.97;;;2.50;;
23814;SDS011;12088;53.078;8.720;2023-04-01T01:41:42;4.17;;;2.37;;
23814;SDS011;12088;53.078;8.720;2023-04-01T01:44:11;4.43;;;2.10;;
23814;SDS011;12088;53.078;8.720;2023-04-01T01:46:39;6.93;;;3.17;;
23814;SDS011;12088;53.078;8.720;2023-04-01T01:49:06;4.00;;;2.17;;
23814;SDS011;12088;53.078;8.720;2023-04-01T01:51:34;4.80;;;2.40;;
23814;SDS011;12088;53.078;8.720;2023-04-01T01:53:59;3.10;;;1.97;;
23814;SDS011;12088;53.078;8.720;2023-04-01T01:56:25;6.20;;;1.73;;
23814;SDS011;12088;53.078;8.720;2023-04-01T01:58:55;4.67;;;2.73;;
23814;SDS011;12088;53.078;8.720;2023-04-01T02:01:27;3.83;;;2.57;;
23814;SDS011;12088;53.078;8.720;2023-04-01T02:03:55;2.20;;;1.50;;
23814;SDS011;12088;53.078;8.720;2023-04-01T02:06:23;2.87;;;2.10;;
23814;SDS011;12088;53.078;8.720;2023-04-01T02:08:54;6.63;;;3.20;;
23814;SDS011;12088;53.078;8.720;2023-04-01T02:11:24;4.73;;;2.40;;
23814;SDS011;12088;53.078;8.720;2023-04-01T02:13:55;2.77;;;1.80;;
23814;SDS011;12088;53.078;8.720;2023-04-01T02:17:00;3.33;;;2.37;;
23814;SDS011;12088;53.078;8.720;2023-04-01T02:19:33;5.43;;;2.37;;
23814;SDS011;12088;53.078;8.720;2023-04-01T02:22:03;3.73;;;2.30;;
23814;SDS011;12088;53.078;8.720;2023-04-01T02:24:33;5.07;;;2.73;;
23814;SDS011;12088;53.078;8.720;2023-04-01T02:27:01;3.80;;;2.57;;
23814;SDS011;12088;53.078;8.720;2023-04-01T02:29:26;4.80;;;2.83;;
23814;SDS011;12088;53.078;8.720;2023-04-01T02:31:52;5.83;;;2.93;;
23814;SDS011;12088;53.078;8.720;2023-04-01T02:34:20;4.20;;;2.63;;
23814;SDS011;12088;53.078;8.720;2023-04-01T02:36:48;4.77;;;2.40;;
23814;SDS011;12088;53.078;8.720;2023-04-01T02:39:14;3.90;;;2.33;;
23814;SDS011;12088;53.078;8.720;2023-04-01T02:41:41;4.47;;;3.00;;
23814;SDS011;12088;53.078;8.720;2023-04-01T02:44:07;3.73;;;2.83;;
23814;SDS011;12088;53.078;8.720;2023-04-01T02:46:34;2.73;;;1.90;;
23814;SDS011;12088;53.078;8.720;2023-04-01T02:49:00;6.27;;;2.30;;
23814;SDS011;12088;53.078;8.720;2023-04-01T02:51:26;6.40;;;2.73;;
23814;SDS011;12088;53.078;8.720;2023-04-01T02:53:52;4.53;;;3.17;;
23814;SDS011;12088;53.078;8.720;2023-04-01T02:56:17;2.93;;;2.10;;
23814;SDS011;12088;53.078;8.720;2023-04-01T02:58:44;3.47;;;2.43;;
23814;SDS011;12088;53.078;8.720;2023-04-01T03:01:10;4.90;;;3.10;;
23814;SDS011;12088;53.078;8.720;2023-04-01T03:03:35;3.23;;;2.00;;
23814;SDS011;12088;53.078;8.720;2023-04-01T03:06:07;6.33;;;2.57;;
23814;SDS011;12088;53.078;8.720;2023-04-01T03:08:34;2.70;;;2.10;;
23814;SDS011;12088;53.078;8.720;2023-04-01T03:11:00;5.83;;;2.60;;
23814;SDS011;12088;53.078;8.720;2023-04-01T03:13:26;4.23;;;2.50;;
23814;SDS011;12088;53.078;8.720;2023-04-01T03:15:52;4.17;;;2.67;;
23814;SDS011;12088;53.078;8.720;2023-04-01T03:18:18;2.63;;;1.90;;
23814;SDS011;12088;53.078;8.720;2023-04-01T03:20:44;5.93;;;2.90;;
23814;SDS011;12088;53.078;8.720;2023-04-01T03:23:10;5.97;;;2.47;;
23814;SDS011;12088;53.078;8.720;2023-04-01T03:25:35;3.93;;;2.67;;
23814;SDS011;12088;53.078;8.720;2023-04-01T03:28:01;5.60;;;1.90;;
23814;SDS011;12088;53.078;8.720;2023-04-01T03:30:27;4.43;;;2.97;;
23814;SDS011;12088;53.078;8.720;2023-04-01T03:32:54;4.73;;;2.33;;
23814;SDS011;12088;53.078;8.720;2023-04-01T03:35:20;4.67;;;2.47;;
23814;SDS011;12088;53.078;8.720;2023-04-01T03:37:46;2.77;;;1.67;;
23814;SDS011;12088;53.078;8.720;2023-04-01T03:40:11;5.10;;;2.53;;
23814;SDS011;12088;53.078;8.720;2023-04-01T03:42:37;3.07;;;2.20;;
23814;SDS011;12088;53.078;8.720;2023-04-01T03:45:03;3.17;;;1.63;;
23814;SDS011;12088;53.078;8.720;2023-04-01T03:47:29;4.97;;;2.43;;
23814;SDS011;12088;53.078;8.720;2023-04-01T03:49:55;3.63;;;2.73;;
23814;SDS011;12088;53.078;8.720;2023-04-01T03:52:20;3.67;;;2.07;;
23814;SDS011;12088;53.078;8.720;2023-04-01T03:54:46;4.80;;;2.57;;
23814;SDS011;12088;53.078;8.720;2023-04-01T03:57:12;2.83;;;1.80;;
23814;SDS011;12088;53.078;8.720;2023-04-01T03:59:37;2.57;;;2.17;;
23814;SDS011;12088;53.078;8.720;2023-04-01T04:02:03;3.60;;;2.10;;
23814;SDS011;12088;53.078;8.720;2023-04-01T04:04:28;5.67;;;2.07;;
23814;SDS011;12088;53.078;8.720;2023-04-01T04:06:54;3.40;;;1.70;;
23814;SDS011;12088;53.078;8.720;2023-04-01T04:09:20;4.47;;;2.53;;
23814;SDS011;12088;53.078;8.720;2023-04-01T04:11:46;2.63;;;1.97;;
23814;SDS011;12088;53.078;8.720;2023-04-01T04:14:11;2.20;;;1.63;;
23814;SDS011;12088;53.078;8.720;2023-04-01T04:16:37;2.97;;;1.83;;
23814;SDS011;12088;53.078;8.720;2023-04-01T04:19:03;2.67;;;2.00;;
23814;SDS011;12088;53.078;8.720;2023-04-01T04:21:29;3.67;;;2.07;;
23814;SDS011;12088;53.078;8.720;2023-04-01T04:23:54;3.57;;;2.10;;
23814;SDS011;12088;53.078;8.720;2023-04-01T04:26:20;3.10;;;2.20;;
23814;SDS011;12088;53.078;8.720;2023-04-01T04:28:46;3.77;;;2.50;;
23814;SDS011;12088;53.078;8.720;2023-04-01T04:31:11;14.90;;;2.80;;
23814;SDS011;12088;53.078;8.720;2023-04-01T04:33:42;2.47;;;2.00;;
23814;SDS011;12088;53.078;8.720;2023-04-01T04:36:08;3.20;;;1.90;;
23814;SDS011;12088;53.078;8.720;2023-04-01T04:38:33;5.33;;;2.00;;
23814;SDS011;12088;53.078;8.720;2023-04-01T04:40:59;1.57;;;1.30;;
23814;SDS011;12088;53.078;8.720;2023-04-01T04:43:24;3.80;;;1.57;;
23814;SDS011;12088;53.078;8.720;2023-04-01T04:45:50;2.73;;;1.63;;
23814;SDS011;12088;53.078;8.720;2023-04-01T04:48:16;2.50;;;1.80;;
23814;SDS011;12088;53.078;8.720;2023-04-01T04:50:44;3.07;;;2.30;;
23814;SDS011;12088;53.078;8.720;2023-04-01T04:53:11;4.27;;;2.20;;
23814;SDS011;12088;53.078;8.720;2023-04-01T04:55:37;4.20;;;1.57;;
23814;SDS011;12088;53.078;8.720;2023-04-01T04:58:07;3.97;;;2.03;;
23814;SDS011;12088;53.078;8.720;2023-04-01T05:00:32;2.00;;;1.63;;
23814;SDS011;12088;53.078;8.720;2023-04-01T05:02:58;2.50;;;1.80;;
23814;SDS011;12088;53.078;8.720;2023-04-01T05:05:23;5.80;;;1.93;;
23814;SDS011;12088;53.078;8.720;2023-04-01T05:07:49;1.83;;;1.53;;
23814;SDS011;12088;53.078;8.720;2023-04-01T05:10:15;3.07;;;1.60;;
23814;SDS011;12088;53.078;8.720;2023-04-01T05:12:40;2.13;;;1.50;;
23814;SDS011;12088;53.078;8.720;2023-04-01T05:15:06;3.10;;;1.13;;
23814;SDS011;12088;53.078;8.720;2023-04-01T05:17:32;2.07;;;1.50;;
23814;SDS011;12088;53.078;8.720;2023-04-01T05:19:57;1.53;;;1.20;;
23814;SDS011;12088;53.078;8.720;2023-04-01T05:22:23;2.33;;;1.83;;
23814;SDS011;12088;53.078;8.720;2023-04-01T05:24:49;2.93;;;1.73;;
23814;SDS011;12088;53.078;8.720;2023-04-01T05:27:14;1.90;;;1.73;;
23814;SDS011;12088;53.078;8.720;2023-04-01T05:29:40;2.10;;;1.57;;
23814;SDS011;12088;53.078;8.720;2023-04-01T05:32:05;1.83;;;1.60;;
23814;SDS011;12088;53.078;8.720;2023-04-01T05:34:31;2.13;;;1.43;;
23814;SDS011;12088;53.078;8.720;2023-04-01T05:36:57;2.87;;;1.50;;
23814;SDS011;12088;53.078;8.720;2023-04-01T05:39:22;3.80;;;1.53;;
23814;SDS011;12088;53.078;8.720;2023-04-01T05:41:48;1.10;;;1.00;;
23814;SDS011;12088;53.078;8.720;2023-04-01T05:44:14;2.77;;;1.43;;
23814;SDS011;12088;53.078;8.720;2023-04-01T05:46:39;1.63;;;1.40;;
23814;SDS011;12088;53.078;8.720;2023-04-01T05:49:06;1.80;;;1.30;;
23814;SDS011;12088;53.078;8.720;2023-04-01T05:51:31;2.30;;;1.90;;
23814;SDS011;12088;53.078;8.720;2023-04-01T05:53:57;6.93;;;1.43;;
23814;SDS011;12088;53.078;8.720;2023-04-01T05:56:22;1.60;;;1.37;;
23814;SDS011;12088;53.078;8.720;2023-04-01T05:58:50;2.73;;;1.93;;
23814;SDS011;12088;53.078;8.720;2023-04-01T06:01:18;3.47;;;1.83;;
23814;SDS011;12088;53.078;8.720;2023-04-01T06:03:44;3.87;;;1.40;;
23814;SDS011;12088;53.078;8.720;2023-04-01T06:06:13;1.70;;;1.50;;
23814;SDS011;12088;53.078;8.720;2023-04-01T06:08:41;1.67;;;1.23;;
23814;SDS011;12088;53.078;8.720;2023-04-01T06:22:24;3.60;;;1.43;;
23814;SDS011;12088;53.078;8.720;2023-04-01T06:24:58;5.20;;;1.53;;
23814;SDS011;12088;53.078;8.720;2023-04-01T06:27:47;1.73;;;1.55;;
23814;SDS011;12088;53.078;8.720;2023-04-01T06:33:11;2.30;;;1.50;;
23814;SDS011;12088;53.078;8.720;2023-04-01T06:36:01;2.50;;;1.60;;
23814;SDS011;12088;53.078;8.720;2023-04-01T06:47:13;4.13;;;1.50;;
23814;SDS011;12088;53.078;8.720;2023-04-01T06:50:11;1.77;;;1.27;;
23814;SDS011;12088;53.078;8.720;2023-04-01T06:52:56;2.40;;;1.50;;
23814;SDS011;12088;53.078;8.720;2023-04-01T06:55:44;1.77;;;1.23;;
23814;SDS011;12088;53.078;8.720;2023-04-01T06:58:42;1.93;;;1.27;;
23814;SDS011;12088;53.078;8.720;2023-04-01T07:01:13;1.90;;;1.20;;
23814;SDS011;12088;53.078;8.720;2023-04-01T07:03:43;3.00;;;1.53;;
23814;SDS011;12088;53.078;8.720;2023-04-01T07:06:35;1.90;;;1.30;;
23814;SDS011;12088;53.078;8.720;2023-04-01T07:09:11;1.40;;;1.30;;
23814;SDS011;12088;53.078;8.720;2023-04-01T07:11:41;1.67;;;1.17;;
23814;SDS011;12088;53.078;8.720;2023-04-01T07:14:19;2.73;;;1.67;;
23814;SDS011;12088;53.078;8.720;2023-04-01T07:17:03;2.57;;;1.40;;
23814;SDS011;12088;53.078;8.720;2023-04-01T07:22:32;2.23;;;1.47;;
23814;SDS011;12088;53.078;8.720;2023-04-01T07:25:13;1.67;;;1.20;;
23814;SDS011;12088;53.078;8.720;2023-04-01T07:27:45;1.53;;;1.20;;
23814;SDS011;12088;53.078;8.720;2023-04-01T07:30:15;1.30;;;1.13;;
23814;SDS011;12088;53.078;8.720;2023-04-01T07:32:44;1.63;;;1.43;;
23814;SDS011;12088;53.078;8.720;2023-04-01T07:35:30;1.23;;;1.13;;
23814;SDS011;12088;53.078;8.720;2023-04-01T07:41:05;1.20;;;1.00;;
23814;SDS011;12088;53.078;8.720;2023-04-01T07:44:03;1.97;;;1.53;;
23814;SDS011;12088;53.078;8.720;2023-04-01T07:52:41;1.07;;;0.90;;
23814;SDS011;12088;53.078;8.720;2023-04-01T07:55:26;1.97;;;1.20;;
23814;SDS011;12088;53.078;8.720;2023-04-01T08:00:36;3.33;;;1.23;;
23814;SDS011;12088;53.078;8.720;2023-04-01T08:03:33;2.03;;;1.43;;
23814;SDS011;12088;53.078;8.720;2023-04-01T08:11:30;0.80;;;0.80;;
23814;SDS011;12088;53.078;8.720;2023-04-01T08:14:07;1.07;;;1.00;;
23814;SDS011;12088;53.078;8.720;2023-04-01T08:17:16;3.77;;;1.50;;
23814;SDS011;12088;53.078;8.720;2023-04-01T08:22:42;0.80;;;0.80;;
23814;SDS011;12088;53.078;8.720;2023-04-01T08:25:13;1.10;;;1.00;;
23814;SDS011;12088;53.078;8.720;2023-04-01T08:27:45;1.40;;;1.30;;
23814;SDS011;12088;53.078;8.720;2023-04-01T08:30:23;1.00;;;0.90;;
23814;SDS011;12088;53.078;8.720;2023-04-01T08:32:59;1.10;;;1.00;;
23814;SDS011;12088;53.078;8.720;2023-04-01T08:35:41;1.30;;;1.20;;
23814;SDS011;12088;53.078;8.720;2023-04-01T08:38:19;1.00;;;0.90;;
23814;SDS011;12088;53.078;8.720;2023-04-01T08:40:55;3.20;;;1.40;;
23814;SDS011;12088;53.078;8.720;2023-04-01T08:43:29;1.37;;;0.83;;
23814;SDS011;12088;53.078;8.720;2023-04-01T08:46:06;0.93;;;0.70;;
23814;SDS011;12088;53.078;8.720;2023-04-01T08:52:04;1.87;;;1.00;;
23814;SDS011;12088;53.078;8.720;2023-04-01T08:57:37;1.20;;;1.10;;
23814;SDS011;12088;53.078;8.720;2023-04-01T09:03:02;0.70;;;0.67;;
23814;SDS011;12088;53.078;8.720;2023-04-01T09:06:19;0.80;;;0.80;;
23814;SDS011;12088;53.078;8.720;2023-04-01T09:08:52;1.63;;;1.10;;
23814;SDS011;12088;53.078;8.720;2023-04-01T09:11:33;1.00;;;1.00;;
23814;SDS011;12088;53.078;8.720;2023-04-01T09:14:35;1.20;;;1.10;;
23814;SDS011;12088;53.078;8.720;2023-04-01T09:23:15;2.00;;;1.53;;
23814;SDS011;12088;53.078;8.720;2023-04-01T09:29:26;1.60;;;0.93;;
23814;SDS011;12088;53.078;8.720;2023-04-01T09:32:03;1.83;;;1.10;;
23814;SDS011;12088;53.078;8.720;2023-04-01T09:37:21;2.20;;;1.07;;
23814;SDS011;12088;53.078;8.720;2023-04-01T09:42:41;1.30;;;0.90;;
23814;SDS011;12088;53.078;8.720;2023-04-01T09:45:22;1.10;;;0.90;;
23814;SDS011;12088;53.078;8.720;2023-04-01T09:59:15;0.77;;;0.77;;
23814;SDS011;12088;53.078;8.720;2023-04-01T10:10:46;0.80;;;0.80;;
23814;SDS011;12088;53.078;8.720;2023-04-01T10:20:03;0.50;;;0.50;;
23814;SDS011;12088;53.078;8.720;2023-04-01T10:25:27;0.50;;;0.50;;
23814;SDS011;12088;53.078;8.720;2023-04-01T10:30:26;0.40;;;0.40;;
23814;SDS011;12088;53.078;8.720;2023-04-01T10:33:35;0.40;;;0.40;;
23814;SDS011;12088;53.078;8.720;2023-04-01T10:42:14;1.60;;;0.60;;
23814;SDS011;12088;53.078;8.720;2023-04-01T10:47:56;0.60;;;0.60;;
23814;SDS011;12088;53.078;8.720;2023-04-01T10:53:31;0.30;;;0.30;;
23814;SDS011;12088;53.078;8.720;2023-04-01T11:04:12;0.70;;;0.70;;
23814;SDS011;12088;53.078;8.720;2023-04-01T11:12:44;0.50;;;0.50;;
23814;SDS011;12088;53.078;8.720;2023-04-01T11:15:24;0.40;;;0.40;;
23814;SDS011;12088;53.078;8.720;2023-04-01T11:17:57;0.53;;;0.53;;
23814;SDS011;12088;53.078;8.720;2023-04-01T11:36:46;0.53;;;0.53;;
23814;SDS011;12088;53.078;8.720;2023-04-01T11:41:51;0.47;;;0.47;;
23814;SDS011;12088;53.078;8.720;2023-04-01T11:44:51;0.60;;;0.60;;
23814;SDS011;12088;53.078;8.720;2023-04-01T11:50:18;0.50;;;0.50;;
23814;SDS011;12088;53.078;8.720;2023-04-01T11:55:40;0.67;;;0.40;;
23814;SDS011;12088;53.078;8.720;2023-04-01T11:58:23;2.83;;;0.80;;
23814;SDS011;12088;53.078;8.720;2023-04-01T12:01:19;0.57;;;0.57;;
23814;SDS011;12088;53.078;8.720;2023-04-01T12:04:10;3.20;;;0.80;;
23814;SDS011;12088;53.078;8.720;2023-04-01T12:07:08;2.27;;;1.07;;
23814;SDS011;12088;53.078;8.720;2023-04-01T12:20:49;0.60;;;0.60;;
23814;SDS011;12088;53.078;8.720;2023-04-01T12:26:26;0.50;;;0.50;;
23814;SDS011;12088;53.078;8.720;2023-04-01T12:31:58;2.33;;;0.87;;
23814;SDS011;12088;53.078;8.720;2023-04-01T12:37:35;0.50;;;0.50;;
23814;SDS011;12088;53.078;8.720;2023-04-01T12:40:28;0.73;;;0.70;;
23814;SDS011;12088;53.078;8.720;2023-04-01T12:57:04;0.50;;;0.50;;
23814;SDS011;12088;53.078;8.720;2023-04-01T13:05:11;0.50;;;0.50;;
23814;SDS011;12088;53.078;8.720;2023-04-01T13:07:52;0.63;;;0.63;;
23814;SDS011;12088;53.078;8.720;2023-04-01T13:10:45;0.40;;;0.40;;
23814;SDS011;12088;53.078;8.720;2023-04-01T13:16:37;0.60;;;0.60;;
23814;SDS011;12088;53.078;8.720;2023-04-01T13:21:59;0.53;;;0.53;;
23814;SDS011;12088;53.078;8.720;2023-04-01T13:24:46;0.73;;;0.50;;
23814;SDS011;12088;53.078;8.720;2023-04-01T13:27:44;0.60;;;0.60;;
23814;SDS011;12088;53.078;8.720;2023-04-01T13:30:18;0.50;;;0.50;;
23814;SDS011;12088;53.078;8.720;2023-04-01T13:36:11;0.50;;;0.50;;
23814;SDS011;12088;53.078;8.720;2023-04-01T13:44:02;0.60;;;0.60;;
23814;SDS011;12088;53.078;8.720;2023-04-01T13:46:38;0.77;;;0.77;;
23814;SDS011;12088;53.078;8.720;2023-04-01T13:49:23;3.10;;;1.13;;
23814;SDS011;12088;53.078;8.720;2023-04-01T13:52:53;0.50;;;0.50;;
23814;SDS011;12088;53.078;8.720;2023-04-01T13:55:16;0.40;;;0.40;;
23814;SDS011;12088;53.078;8.720;2023-04-01T14:11:44;0.60;;;0.60;;
23814;SDS011;12088;53.078;8.720;2023-04-01T14:14:31;0.60;;;0.60;;
23814;SDS011;12088;53.078;8.720;2023-04-01T14:29:14;0.50;;;0.50;;
23814;SDS011;12088;53.078;8.720;2023-04-01T14:31:52;1.00;;;0.90;;
23814;SDS011;12088;53.078;8.720;2023-04-01T14:34:43;0.90;;;0.90;;
23814;SDS011;12088;53.078;8.720;2023-04-01T14:42:44;0.73;;;0.73;;
23814;SDS011;12088;53.078;8.720;2023-04-01T14:45:22;1.07;;;0.87;;
23814;SDS011;12088;53.078;8.720;2023-04-01T14:50:51;0.87;;;0.87;;
23814;SDS011;12088;53.078;8.720;2023-04-01T14:56:00;0.73;;;0.73;;
23814;SDS011;12088;53.078;8.720;2023-04-01T14:58:44;1.93;;;1.30;;
23814;SDS011;12088;53.078;8.720;2023-04-01T15:06:35;0.70;;;0.70;;
23814;SDS011;12088;53.078;8.720;2023-04-01T15:09:19;1.40;;;0.80;;
23814;SDS011;12088;53.078;8.720;2023-04-01T15:11:55;1.00;;;1.00;;
23814;SDS011;12088;53.078;8.720;2023-04-01T15:17:48;0.80;;;0.80;;
23814;SDS011;12088;53.078;8.720;2023-04-01T15:20:36;1.33;;;0.83;;
23814;SDS011;12088;53.078;8.720;2023-04-01T15:26:12;2.27;;;1.50;;
23814;SDS011;12088;53.078;8.720;2023-04-01T15:29:01;4.80;;;1.33;;
23814;SDS011;12088;53.078;8.720;2023-04-01T15:31:43;0.77;;;0.70;;
23814;SDS011;12088;53.078;8.720;2023-04-01T15:45:36;3.90;;;0.90;;
23814;SDS011;12088;53.078;8.720;2023-04-01T15:51:02;3.07;;;1.57;;
23814;SDS011;12088;53.078;8.720;2023-04-01T15:56:48;0.90;;;0.73;;
23814;SDS011;12088;53.078;8.720;2023-04-01T16:04:34;1.30;;;1.20;;
23814;SDS011;12088;53.078;8.720;2023-04-01T16:07:47;1.20;;;0.97;;
23814;SDS011;12088;53.078;8.720;2023-04-01T16:13:28;3.90;;;1.63;;
23814;SDS011;12088;53.078;8.720;2023-04-01T16:16:13;1.63;;;1.07;;
23814;SDS011;12088;53.078;8.720;2023-04-01T16:18:51;0.70;;;0.70;;
23814;SDS011;12088;53.078;8.720;2023-04-01T16:21:43;2.10;;;1.10;;
23814;SDS011;12088;53.078;8.720;2023-04-01T16:24:34;3.20;;;1.20;;
23814;SDS011;12088;53.078;8.720;2023-04-01T16:33:01;1.47;;;0.90;;
23814;SDS011;12088;53.078;8.720;2023-04-01T16:35:43;0.83;;;0.83;;
23814;SDS011;12088;53.078;8.720;2023-04-01T16:40:47;0.77;;;0.77;;
23814;SDS011;12088;53.078;8.720;2023-04-01T16:51:46;1.43;;;1.17;;
23814;SDS011;12088;53.078;8.720;2023-04-01T17:00:24;0.87;;;0.80;;
23814;SDS011;12088;53.078;8.720;2023-04-01T17:02:57;1.27;;;1.10;;
23814;SDS011;12088;53.078;8.720;2023-04-01T17:05:49;1.00;;;0.80;;
23814;SDS011;12088;53.078;8.720;2023-04-01T17:11:31;1.77;;;1.40;;
23814;SDS011;12088;53.078;8.720;2023-04-01T17:14:19;2.30;;;1.20;;
23814;SDS011;12088;53.078;8.720;2023-04-01T17:16:49;1.40;;;1.20;;
23814;SDS011;12088;53.078;8.720;2023-04-01T17:19:46;1.80;;;1.40;;
23814;SDS011;12088;53.078;8.720;2023-04-01T17:22:31;1.40;;;1.30;;
23814;SDS011;12088;53.078;8.720;2023-04-01T17:34:05;1.73;;;1.00;;
23814;SDS011;12088;53.078;8.720;2023-04-01T17:36:36;1.33;;;1.20;;
23814;SDS011;12088;53.078;8.720;2023-04-01T17:39:25;1.77;;;1.53;;
23814;SDS011;12088;53.078;8.720;2023-04-01T17:42:06;1.80;;;1.27;;
23814;SDS011;12088;53.078;8.720;2023-04-01T17:47:37;1.20;;;1.10;;
23814;SDS011;12088;53.078;8.720;2023-04-01T17:50:24;4.90;;;1.00;;
23814;SDS011;12088;53.078;8.720;2023-04-01T17:53:15;2.37;;;1.30;;
23814;SDS011;12088;53.078;8.720;2023-04-01T17:55:59;1.53;;;1.37;;
23814;SDS011;12088;53.078;8.720;2023-04-01T17:58:41;1.50;;;1.40;;
23814;SDS011;12088;53.078;8.720;2023-04-01T18:06:14;1.50;;;1.40;;
23814;SDS011;12088;53.078;8.720;2023-04-01T18:08:58;2.00;;;1.80;;
23814;SDS011;12088;53.078;8.720;2023-04-01T18:17:13;0.97;;;0.97;;
23814;SDS011;12088;53.078;8.720;2023-04-01T18:19:50;1.63;;;1.07;;
23814;SDS011;12088;53.078;8.720;2023-04-01T18:22:48;2.33;;;1.77;;
23814;SDS011;12088;53.078;8.720;2023-04-01T18:25:38;1.87;;;1.50;;
23814;SDS011;12088;53.078;8.720;2023-04-01T18:30:56;1.63;;;1.23;;
23814;SDS011;12088;53.078;8.720;2023-04-01T18:39:16;2.80;;;1.40;;
23814;SDS011;12088;53.078;8.720;2023-04-01T18:44:38;2.67;;;1.47;;
23814;SDS011;12088;53.078;8.720;2023-04-01T18:47:11;1.80;;;1.67;;
23814;SDS011;12088;53.078;8.720;2023-04-01T18:52:56;2.23;;;1.47;;
23814;SDS011;12088;53.078;8.720;2023-04-01T18:55:29;3.20;;;1.60;;
23814;SDS011;12088;53.078;8.720;2023-04-01T18:58:12;2.77;;;1.57;;
23814;SDS011;12088;53.078;8.720;2023-04-01T19:00:48;2.97;;;1.53;;
23814;SDS011;12088;53.078;8.720;2023-04-01T19:06:44;2.23;;;1.50;;
23814;SDS011;12088;53.078;8.720;2023-04-01T19:15:02;3.10;;;1.70;;
23814;SDS011;12088;53.078;8.720;2023-04-01T19:20:37;1.87;;;1.60;;
23814;SDS011;12088;53.078;8.720;2023-04-01T19:26:34;2.03;;;1.50;;
23814;SDS011;12088;53.078;8.720;2023-04-01T19:29:24;1.50;;;1.30;;
23814;SDS011;12088;53.078;8.720;2023-04-01T19:32:32;2.10;;;1.77;;
23814;SDS011;12088;53.078;8.720;2023-04-01T19:35:22;3.10;;;1.20;;
23814;SDS011;12088;53.078;8.720;2023-04-01T19:46:52;7.00;;;2.50;;
23814;SDS011;12088;53.078;8.720;2023-04-01T19:52:04;3.97;;;2.50;;
23814;SDS011;12088;53.078;8.720;2023-04-01T19:54:56;6.70;;;2.87;;
23814;SDS011;12088;53.078;8.720;2023-04-01T19:57:52;4.10;;;2.30;;
23814;SDS011;12088;53.078;8.720;2023-04-01T20:00:44;1.73;;;1.57;;
23814;SDS011;12088;53.078;8.720;2023-04-01T20:03:23;12.90;;;1.67;;
23814;SDS011;12088;53.078;8.720;2023-04-01T20:06:17;2.10;;;1.90;;
23814;SDS011;12088;53.078;8.720;2023-04-01T20:09:08;1.90;;;1.73;;
23814;SDS011;12088;53.078;8.720;2023-04-01T20:11:58;3.67;;;1.90;;
23814;SDS011;12088;53.078;8.720;2023-04-01T20:14:47;5.93;;;1.63;;
23814;SDS011;12088;53.078;8.720;2023-04-01T20:25:05;4.70;;;2.37;;
23814;SDS011;12088;53.078;8.720;2023-04-01T20:27:47;2.37;;;1.63;;
23814;SDS011;12088;53.078;8.720;2023-04-01T20:41:28;10.07;;;1.57;;
23814;SDS011;12088;53.078;8.720;2023-04-01T20:44:20;1.80;;;1.70;;
23814;SDS011;12088;53.078;8.720;2023-04-01T20:47:06;1.60;;;1.40;;
23814;SDS011;12088;53.078;8.720;2023-04-01T20:50:02;2.37;;;1.73;;
23814;SDS011;12088;53.078;8.720;2023-04-01T20:52:56;1.70;;;1.60;;
23814;SDS011;12088;53.078;8.720;2023-04-01T21:01:11;3.70;;;2.23;;
23814;SDS011;12088;53.078;8.720;2023-04-01T21:03:49;2.23;;;1.63;;
23814;SDS011;12088;53.078;8.720;2023-04-01T21:06:36;2.67;;;1.90;;
23814;SDS011;12088;53.078;8.720;2023-04-01T21:09:11;2.87;;;2.00;;
23814;SDS011;12088;53.078;8.720;2023-04-01T21:12:14;2.30;;;1.67;;
23814;SDS011;12088;53.078;8.720;2023-04-01T21:15:26;2.50;;;2.30;;
23814;SDS011;12088;53.078;8.720;2023-04-01T21:24:30;1.67;;;1.43;;
23814;SDS011;12088;53.078;8.720;2023-04-01T21:27:12;1.27;;;1.17;;
23814;SDS011;12088;53.078;8.720;2023-04-01T21:29:51;1.80;;;1.30;;
23814;SDS011;12088;53.078;8.720;2023-04-01T21:32:35;2.90;;;1.73;;
23814;SDS011;12088;53.078;8.720;2023-04-01T21:38:20;8.77;;;1.83;;
23814;SDS011;12088;53.078;8.720;2023-04-01T21:43:45;2.20;;;1.57;;
23814;SDS011;12088;53.078;8.720;2023-04-01T21:46:26;4.53;;;2.13;;
23814;SDS011;12088;53.078;8.720;2023-04-01T21:54:52;1.53;;;1.30;;
23814;SDS011;12088;53.078;8.720;2023-04-01T22:09:24;4.33;;;1.63;;
23814;SDS011;12088;53.078;8.720;2023-04-01T22:12:09;7.43;;;2.30;;
23814;SDS011;12088;53.078;8.720;2023-04-01T22:17:57;2.13;;;1.60;;
23814;SDS011;12088;53.078;8.720;2023-04-01T22:23:25;2.47;;;1.63;;
23814;SDS011;12088;53.078;8.720;2023-04-01T22:31:29;9.63;;;1.47;;
23814;SDS011;12088;53.078;8.720;2023-04-01T22:50:32;1.47;;;1.37;;
23814;SDS011;12088;53.078;8.720;2023-04-01T22:53:25;1.50;;;1.40;;
23814;SDS011;12088;53.078;8.720;2023-04-01T22:56:14;1.33;;;1.10;;
23814;SDS011;12088;53.078;8.720;2023-04-01T22:58:47;0.97;;;0.97;;
23814;SDS011;12088;53.078;8.720;2023-04-01T23:01:20;1.43;;;1.33;;
23814;SDS011;12088;53.078;8.720;2023-04-01T23:03:51;1.20;;;1.10;;
23814;SDS011;12088;53.078;8.720;2023-04-01T23:06:18;5.30;;;2.60;;
23814;SDS011;12088;53.078;8.720;2023-04-01T23:09:00;1.57;;;1.30;;
23814;SDS011;12088;53.078;8.720;2023-04-01T23:11:49;5.07;;;1.93;;
23814;SDS011;12088;53.078;8.720;2023-04-01T23:16:57;4.40;;;1.97;;
23814;SDS011;12088;53.078;8.720;2023-04-01T23:22:10;1.20;;;1.20;;
23814;SDS011;12088;53.078;8.720;2023-04-01T23:24:46;2.17;;;1.43;;
23814;SDS011;12088;53.078;8.720;2023-04-01T23:35:50;1.80;;;1.30;;
23814;SDS011;12088;53.078;8.720;2023-04-01T23:38:19;0.83;;;0.83;;
23814;SDS011;12088;53.078;8.720;2023-04-01T23:40:49;0.70;;;0.70;;